Flight Track Log - Related Links

Times and Time Zones

All times are in EDT time to prevent confusion due to time zone crossing. See the THY2474 flight status page for this flight to view local times or setup timezone preferences in your user account.

Time Position Orientation Groundspeed Altitude Reporting Facility
EDT Latitude Longitude Course Direction KTS MPH feet Rate Location/Type
Mon 04:17:00 PM 40.6233 29.4492 126° Southeast  Level Estimated
Mon 04:18:00 PM 40.5640 29.5532 127° Southeast  Level Estimated
Mon 04:19:00 PM 40.5046 29.6571 127° Southeast  Level Estimated
Mon 04:20:00 PM 40.4452 29.7607 127° Southeast  Level Estimated
Mon 04:21:00 PM 40.3856 29.8642 127° Southeast  Level Estimated
Mon 04:22:00 PM 40.3260 29.9675 127° Southeast  Level Estimated
Mon 04:23:00 PM 40.2663 30.0706 127° Southeast  Level Estimated
Mon 04:24:00 PM 40.2065 30.1736 127° Southeast  Level Estimated
Mon 04:25:00 PM 40.1465 30.2763 127° Southeast  Level Estimated
Mon 04:26:00 PM 40.0865 30.3789 127° Southeast  Level Estimated
Mon 04:27:00 PM 40.0264 30.4813 127° Southeast  Level Estimated
Mon 04:28:00 PM 39.9663 30.5835 128° Southeast  Level Estimated
Mon 04:29:00 PM 39.9060 30.6855 128° Southeast  Level Estimated
Mon 04:30:00 PM 39.8456 30.7874 128° Southeast  Level Estimated
Mon 04:31:00 PM 39.7852 30.8890 128° Southeast  Level Estimated
Mon 04:32:00 PM 39.7246 30.9905 128° Southeast  Level Estimated
Mon 04:33:00 PM 39.6640 31.0918 128° Southeast  Level Estimated
Mon 04:34:00 PM 39.6033 31.1930 128° Southeast  Level Estimated
Mon 04:35:00 PM 39.5425 31.2939 128° Southeast  Level Estimated
Mon 04:36:00 PM 39.4816 31.3947 128° Southeast  Level Estimated
Mon 04:37:00 PM 39.4206 31.4953 128° Southeast  Level Estimated
Mon 04:38:00 PM 39.3596 31.5957 128° Southeast  Level Estimated
Mon 04:39:00 PM 39.2984 31.6960 128° Southeast  Level Estimated
Mon 04:40:00 PM 39.2372 31.7961 128° Southeast  Level Estimated
Mon 04:41:00 PM 39.1759 31.8960 128° Southeast  Level Estimated
Mon 04:42:00 PM 39.1144 31.9957 128° Southeast  Level Estimated
Mon 04:43:00 PM 39.0530 32.0953 128° Southeast  Level Estimated
Mon 04:44:00 PM 38.9914 32.1946 129° Southeast  Level Estimated
Mon 04:45:00 PM 38.9297 32.2939 129° Southeast  Level Estimated
Mon 04:46:00 PM 38.8680 32.3929 129° Southeast  Level Estimated
Mon 04:47:00 PM 38.8061 32.4918 129° Southeast  Level Estimated
Mon 04:48:00 PM 38.7442 32.5905 129° Southeast  Level Estimated
Mon 04:49:00 PM 38.6823 32.6890 129° Southeast  Level Estimated
Mon 04:50:00 PM 38.6202 32.7873 129° Southeast  Level Estimated
Mon 04:51:00 PM 38.5580 32.8855 129° Southeast  Level Estimated
Mon 04:52:00 PM 38.4958 32.9835 129° Southeast  Level Estimated
Mon 04:53:00 PM 38.4335 33.0814 129° Southeast  Level Estimated
Mon 04:54:00 PM 38.3711 33.1790 129° Southeast  Level Estimated
Mon 04:55:00 PM 38.3086 33.2765 129° Southeast  Level Estimated
Mon 04:56:00 PM 38.2460 33.3739 129° Southeast  Level Estimated
Mon 04:57:00 PM 38.1834 33.4711 129° Southeast  Level Estimated
Mon 04:58:00 PM 38.1206 33.5681 129° Southeast  Level Estimated
Mon 04:59:00 PM 38.0578 33.6649 129° Southeast  Level Estimated
Mon 05:00:00 PM 37.9950 33.7616 130° Southeast  Level Estimated
Mon 05:01:00 PM 37.9320 33.8581 130° Southeast  Level Estimated
Mon 05:02:00 PM 37.8690 33.9544 130° Southeast  Level Estimated
Mon 05:03:00 PM 37.8058 34.0506 130° Southeast  Level Estimated
Mon 05:04:00 PM 37.7426 34.1466 130° Southeast  Level Estimated
Mon 05:05:00 PM 37.6794 34.2424 130° Southeast  Level Estimated
Mon 05:06:00 PM 37.6160 34.3381 130° Southeast  Level Estimated
Mon 05:07:00 PM 37.5526 34.4336 130° Southeast  Level Estimated
Mon 05:08:00 PM 37.4891 34.5290 130° Southeast  Level Estimated
Mon 05:09:00 PM 37.4255 34.6242 130° Southeast  Level Estimated
Mon 05:10:00 PM 37.3618 34.7192 130° Southeast  Level Estimated
Mon 05:11:00 PM 37.2981 34.8141 130° Southeast  Level Estimated
Mon 05:12:00 PM 37.2343 34.9088 130° Southeast  Level Estimated
Mon 05:13:00 PM 37.1704 35.0033 130° Southeast  Level Estimated
Mon 05:14:00 PM 37.1064 35.0977 130° Southeast  Level Estimated
Mon 05:15:00 PM 37.0424 35.1920 130° Southeast  Level Estimated
Mon 05:16:00 PM 36.9822 35.2804 130° Southeast  Level Estimated
Mon 05:17:00 PM 36.9822 35.2804 North  Level Estimated
Mon 05:18:00 PM 36.9822 35.2804 North  Level Estimated
Mon 05:19:00 PM 36.9822 35.2804 North  Level Estimated
Mon 05:20:00 PM 36.9822 35.2804 North  Level Estimated
Mon 05:21:00 PM 36.9822 35.2804 North  Level Estimated
Mon 05:22:00 PM 36.9822 35.2804 North  Level Estimated
Mon 05:23:00 PM 36.9822 35.2804 North  Level Estimated
Mon 05:24:00 PM 36.9822 35.2804 North  Level Estimated
Mon 05:25:00 PM 36.9822 35.2804 North  Level Estimated
Mon 05:26:00 PM 36.9822 35.2804 North  Level Estimated
Mon 05:27:00 PM 36.9822 35.2804 North  Level Estimated
Mon 05:28:00 PM 36.9822 35.2804 North  Level Estimated
Mon 05:29:00 PM 36.9822 35.2804 North  Level Estimated
Mon 05:30:00 PM 36.9822 35.2804 North  Level Estimated
Mon 05:31:00 PM 36.9822 35.2804 North  Level Estimated
Mon 05:32:00 PM 36.9822 35.2804 North  Level Estimated

Login

Don't have an account? Register now (free) for customized features, flight alerts, and more!